Flight Track Log - Related Links

Times and Time Zones

All times are in EDT time to prevent confusion due to time zone crossing. See the CPZ5718 flight status page for this flight to view local times or setup timezone preferences in your user account.

Time Position Orientation Groundspeed Altitude Reporting Facility
EDT Latitude Longitude Course Direction KTS MPH feet Rate Location/Type
Sun 08:43:46 AM 42.7736 -73.8092 281° West 166 191 1,200  Level Boston Center
Sun 08:45:05 AM 42.8397 -73.8586 331° Northwest 230 265 3,400 2,320 Climbing Boston Center
Sun 08:46:00 AM 42.8414 -74.3814 283° West  Level FlightAware Approximate
Sun 08:46:16 AM 42.9097 -73.9197 327° Northwest 261 300 7,000  Level Boston Center
Sun 08:47:00 AM 42.8660 -74.5294 283° West  Level FlightAware Approximate
Sun 08:47:14 AM 42.9717 -73.9694 330° Northwest 271 312 9,600  Level Boston Center
Sun 08:48:00 AM 42.8995 -74.6675 281° West  Level FlightAware Approximate
Sun 08:48:14 AM 43.0458 -74.0339 328° Northwest 292 336 11,500  Level Boston Center
Sun 08:49:16 AM 43.1239 -74.1014 328° Northwest 322 371 13,700 2,269 Climbing Boston Center
Sun 08:50:13 AM 43.2061 -74.1806 325° Northwest 354 407 16,000 2,186 Climbing Boston Center
Sun 08:51:14 AM 43.2522 -74.2986 298° West 354 407 18,000 1,672 Climbing Boston Center
Sun 08:52:15 AM 43.2833 -74.4336 288° West 360 414 19,400 1,686 Climbing Boston Center
Sun 08:53:15 AM 43.3164 -74.5689 289° West 373 429 21,400 1,636 Climbing Boston Center
Sun 08:54:16 AM 43.3511 -74.7100 289° West 379 436 22,700 1,450 Climbing Boston Center
Sun 08:55:15 AM 43.3856 -74.8542 288° West 394 453 24,300 1,563 Climbing Boston Center
Sun 08:56:15 AM 43.4219 -75.0014 289° West 399 459 25,800 1,388 Climbing Boston Center
Sun 08:57:16 AM 43.4567 -75.1317 290° West 404 465 27,100 1,091 Climbing Boston Center
Sun 08:58:16 AM 43.4925 -75.2878 288° West 414 476 28,000 864 Climbing Boston Center
Sun 08:59:14 AM 43.5261 -75.4411 287° West 419 482 28,800 864 Climbing Boston Center
Sun 09:00:14 AM 43.5614 -75.5978 287° West 424 488 29,700 942 Climbing Boston Center
Sun 09:01:15 AM 43.5944 -75.7514 287° West 424 488 30,700 908 Climbing Boston Center
Sun 09:02:13 AM 43.6317 -75.9086 288° West 424 488 31,500 850 Climbing Boston Center
Sun 09:03:15 AM 43.6683 -76.0656 288° West 429 494 32,400 878 Climbing Boston Center
Sun 09:04:16 AM 43.7028 -76.2258 287° West 429 494 33,300 807 Climbing Boston Center
Sun 09:05:14 AM 43.7375 -76.3775 288° West 424 488 34,000 353 Climbing Boston Center
Sun 09:06:15 AM 43.7717 -76.5319 287° West 424 488 34,000  Level Boston Center
Sun 09:07:03 AM 43.7833 -76.6500 278° West 420 483 34,000  Level Toronto Center
Sun 09:08:03 AM 43.8333 -76.8167 293° West 420 483 34,000  Level Toronto Center
Sun 09:09:03 AM 43.8500 -76.9500 280° West 420 483 34,000  Level Toronto Center
Sun 09:10:03 AM 43.8833 -77.1167 286° West 420 483 34,000  Level Toronto Center
Sun 09:11:03 AM 43.9167 -77.2667 287° West 420 483 34,000  Level Toronto Center
Sun 09:12:03 AM 43.9667 -77.4333 293° West 430 495 34,000  Level Toronto Center
Sun 09:13:03 AM 43.9833 -77.6000 278° West 430 495 34,000  Level Toronto Center
Sun 09:14:03 AM 44.0167 -77.7333 289° West 430 495 34,000  Level Toronto Center
Sun 09:15:03 AM 44.0500 -77.9167 284° West 420 483 34,000  Level Toronto Center
Sun 09:16:03 AM 44.0833 -78.0500 289° West 430 495 34,000  Level Toronto Center
Sun 09:17:03 AM 44.1167 -78.2167 286° West 430 495 34,000  Level Toronto Center
Sun 09:18:03 AM 44.1500 -78.3833 286° West 430 495 34,000  Level Toronto Center
Sun 09:19:03 AM 44.1833 -78.5333 287° West 430 495 34,000  Level Toronto Center
Sun 09:20:03 AM 44.2167 -78.7000 286° West 430 495 34,000  Level Toronto Center
Sun 09:21:03 AM 44.2500 -78.8333 289° West 430 495 34,000  Level Toronto Center
Sun 09:22:03 AM 44.2833 -79.0333 283° West 430 495 34,000  Level Toronto Center
Sun 09:23:03 AM 44.3000 -79.1667 280° West 420 483 34,000  Level Toronto Center
Sun 09:24:03 AM 44.3167 -79.3333 278° West 430 495 34,000  Level Toronto Center
Sun 09:25:03 AM 44.3333 -79.5000 278° West 430 495 34,000  Level Toronto Center
Sun 09:26:03 AM 44.3333 -79.6500 270° West 430 495 34,000  Level Toronto Center
Sun 09:27:03 AM 44.3500 -79.8500 277° West 430 495 34,000  Level Toronto Center
Sun 09:28:03 AM 44.3667 -80.0000 279° West 430 495 34,000  Level Toronto Center
Sun 09:29:03 AM 44.3667 -80.1667 270° West 430 495 34,000  Level Toronto Center
Sun 09:30:03 AM 44.3833 -80.3333 278° West 430 495 34,000  Level Toronto Center
Sun 09:31:03 AM 44.3833 -80.5000 270° West 430 495 34,000  Level Toronto Center
Sun 09:32:03 AM 44.4000 -80.6667 278° West 430 495 34,000  Level Toronto Center
Sun 09:33:03 AM 44.4167 -80.8167 279° West 430 495 34,000  Level Toronto Center
Sun 09:34:03 AM 44.4000 -81.0167 263° West 440 506 34,000  Level Toronto Center
Sun 09:35:03 AM 44.4167 -81.1667 279° West 430 495 34,000  Level Toronto Center
Sun 09:36:03 AM 44.4333 -81.3333 278° West 430 495 34,000  Level Toronto Center
Sun 09:37:03 AM 44.4333 -81.5000 270° West 440 506 34,000  Level Toronto Center
Sun 09:38:03 AM 44.4500 -81.6667 278° West 420 483 34,000  Level Toronto Center
Sun 09:39:03 AM 44.4500 -81.8500 270° West 430 495 34,000  Level Toronto Center
Sun 09:40:03 AM 44.4500 -82.0000 270° West 420 483 34,000  Level Toronto Center
Sun 09:41:03 AM 44.4667 -82.1833 277° West 430 495 34,000  Level Toronto Center
Sun 09:42:03 AM 44.4667 -82.3500 270° West 440 506 34,000  Level Toronto Center
Sun 09:42:56 AM 44.4839 -82.4694 281° West 433 498 34,000  Level Minneapolis Center
Sun 09:43:58 AM 44.4925 -82.6703 274° West 432 497 34,000  Level Minneapolis Center
Sun 09:44:59 AM 44.4981 -82.8367 273° West 430 495 34,000  Level Minneapolis Center
Sun 09:46:00 AM 44.5031 -83.0044 272° West 432 497 34,000  Level Minneapolis Center
Sun 09:47:02 AM 44.5103 -83.1731 273° West 434 499 34,000  Level Minneapolis Center
Sun 09:48:03 AM 44.5147 -83.3425 272° West 435 501 34,000  Level Minneapolis Center
Sun 09:49:04 AM 44.5192 -83.4781 273° West 436 502 34,000  Level Minneapolis Center
Sun 09:50:06 AM 44.5236 -83.6828 272° West 438 504 34,000 -341 Level Minneapolis Center
Sun 09:51:07 AM 44.5278 -83.8522 272° West 438 504 33,300 -934 Descending Minneapolis Center
Sun 09:52:08 AM 44.5317 -84.0186 272° West 432 497 32,100 -634 Descending Minneapolis Center
Sun 09:53:10 AM 44.5378 -84.2197 273° West 432 497 32,000 -49 Descending Minneapolis Center
Sun 09:54:11 AM 44.5425 -84.3908 272° West 437 503 32,000  Level Minneapolis Center
Sun 09:55:13 AM 44.5453 -84.5622 271° West 440 506 32,000  Level Minneapolis Center
Sun 09:56:14 AM 44.5478 -84.7322 271° West 438 504 32,000  Level Minneapolis Center
Sun 09:57:15 AM 44.5503 -84.9003 271° West 435 501 32,000  Level Minneapolis Center
Sun 09:58:17 AM 44.5533 -85.0692 272° West 434 499 32,000  Level Minneapolis Center
Sun 09:59:18 AM 44.5544 -85.2383 271° West 434 499 32,000  Level Minneapolis Center
Sun 10:00:20 AM 44.5572 -85.4081 271° West 435 501 32,000  Level Minneapolis Center
Sun 10:01:21 AM 44.5594 -85.5775 271° West 434 499 32,000  Level Minneapolis Center
Sun 10:02:22 AM 44.5606 -85.7453 271° West 431 496 32,000  Level Minneapolis Center
Sun 10:03:24 AM 44.5611 -85.9481 270° West 430 495 32,000  Level Minneapolis Center
Sun 10:04:25 AM 44.5628 -86.1197 271° West 433 498 32,000  Level Minneapolis Center
Sun 10:05:27 AM 44.5633 -86.2892 270° West 432 497 32,000  Level Minneapolis Center
Sun 10:06:28 AM 44.6156 -86.4356 297° West 424 488 32,000  Level Minneapolis Center
Sun 10:07:29 AM 44.7058 -86.5489 318° Northwest 436 502 32,000  Level Minneapolis Center
Sun 10:08:31 AM 44.7936 -86.6625 317° Northwest 434 499 32,000  Level Minneapolis Center
Sun 10:09:32 AM 44.8839 -86.7786 318° Northwest 429 494 32,000  Level Minneapolis Center
Sun 10:10:34 AM 44.9717 -86.8914 318° Northwest 428 493 32,000  Level Minneapolis Center
Sun 10:11:35 AM 45.0622 -87.0022 319° Northwest 430 495 32,000  Level Minneapolis Center
Sun 10:12:37 AM 45.1139 -87.1472 297° West 421 484 32,000  Level Minneapolis Center
Sun 10:13:38 AM 45.1092 -87.3119 268° West 421 484 32,000  Level Minneapolis Center
Sun 10:14:40 AM 45.1022 -87.5092 267° West 422 486 32,000  Level Minneapolis Center
Sun 10:15:41 AM 45.0964 -87.6753 267° West 423 487 32,000  Level Minneapolis Center
Sun 10:16:43 AM 45.0903 -87.8394 267° West 421 484 32,000  Level Minneapolis Center
Sun 10:17:44 AM 45.0844 -88.0039 267° West 420 483 32,000  Level Minneapolis Center
Sun 10:18:46 AM 45.0786 -88.1692 267° West 422 486 32,000  Level Minneapolis Center
Sun 10:19:47 AM 45.0722 -88.3347 267° West 423 487 32,000  Level Minneapolis Center
Sun 10:20:49 AM 45.0644 -88.4997 266° West 423 487 32,000  Level Minneapolis Center
Sun 10:21:51 AM 45.0572 -88.6800 267° West 421 484 32,000  Level Minneapolis Center
Sun 10:22:52 AM 45.0492 -88.8464 266° West 419 482 32,000  Level Minneapolis Center
Sun 10:23:54 AM 45.0431 -88.9836 266° West 419 482 32,000  Level Minneapolis Center
Sun 10:24:56 AM 45.0342 -89.1744 266° West 419 482 32,000  Level Minneapolis Center
Sun 10:25:57 AM 45.0242 -89.3656 266° West 418 481 32,000  Level Minneapolis Center
Sun 10:26:59 AM 45.0158 -89.5308 266° West 421 484 32,000  Level Minneapolis Center
Sun 10:28:01 AM 45.0081 -89.6950 266° West 420 483 32,000  Level Minneapolis Center
Sun 10:29:03 AM 44.9975 -89.8658 265° West 418 481 32,000  Level Minneapolis Center
Sun 10:30:04 AM 44.9886 -90.0297 266° West 418 481 32,000  Level Minneapolis Center
Sun 10:31:06 AM 44.9872 -90.1925 269° West 415 478 32,000  Level Minneapolis Center
Sun 10:32:08 AM 44.9942 -90.3597 273° West 422 486 32,000  Level Minneapolis Center
Sun 10:33:10 AM 45.0006 -90.5242 273° West 420 483 32,000  Level Minneapolis Center
Sun 10:34:11 AM 45.0047 -90.6553 273° West 418 481 32,000 -976 Level Minneapolis Center
Sun 10:35:13 AM 45.0122 -90.8839 273° West 415 478 30,000 -1,935 Descending Minneapolis Center
Sun 10:36:15 AM 45.0147 -91.0278 271° West 416 479 28,000 -2,177 Descending Minneapolis Center
Sun 10:37:17 AM 45.0219 -91.2158 273° West 423 487 25,500 -2,274 Descending Minneapolis Center
Sun 10:38:19 AM 45.0261 -91.3825 272° West 408 470 23,300 -2,081 Descending Minneapolis Center
Sun 10:39:21 AM 45.0292 -91.5325 272° West 392 451 21,200 -1,984 Descending Minneapolis Center
Sun 10:40:23 AM 45.0328 -91.6806 272° West 382 440 19,200 -1,887 Descending Minneapolis Center
Sun 10:41:25 AM 45.0392 -91.8253 274° West 374 430 17,300 -1,805 Descending Minneapolis Center
Sun 10:42:26 AM 45.0431 -91.9617 272° West 352 405 15,500 -1,756 Descending Minneapolis Center
Sun 10:43:28 AM 45.0442 -92.0922 271° West 335 386 13,700 -1,721 Descending Minneapolis Center
Sun 10:44:42 AM 45.0483 -92.2467 272° West 330 380 11,600 -1,191 Descending Minneapolis Center
Sun 10:45:44 AM 45.0128 -92.3881 250° West 322 371 11,000 -919 Descending Minneapolis Center
Sun 10:46:46 AM 44.9719 -92.4814 238° Southwest 281 323 9,700 -1,452 Descending Minneapolis Center
Sun 10:47:48 AM 44.9322 -92.5706 238° Southwest 274 315 8,000 -1,317 Descending Minneapolis Center
Sun 10:48:49 AM 44.9014 -92.6403 238° Southwest 265 305 7,000 -532 Descending Minneapolis Center
Sun 10:49:52 AM 44.8558 -92.7422 238° Southwest 257 296 6,900 -720 Descending Minneapolis Center
Sun 10:50:54 AM 44.8217 -92.8189 238° Southwest 235 270 5,500 -1,512 Descending Minneapolis Center
Sun 10:51:55 AM 44.8147 -92.9186 264° West 218 251 3,800 -1,220 Descending Minneapolis Center
Sun 10:52:57 AM 44.8200 -92.9894 276° West 188 216 3,000 -387 Descending Minneapolis Center
Sun 10:53:59 AM 44.8258 -93.0461 278° West 152 175 3,000 -244 Level Minneapolis Center
Sun 10:55:00 AM 44.8364 -93.0894 289° West 151 174 2,500 -677 Descending Minneapolis Center
Sun 10:56:03 AM 44.8619 -93.1494 301° West 150 173 1,600 -857 Descending Minneapolis Center

Login

Don't have an account? Register now (free) for customized features, flight alerts, and more!